Time;durP1;ratioP1;P1;durP2;ratioP2;P2;SDS_P1;SDS_P2;PMS_P1;PMS_P2;Temp;Humidity;BMP_temperature;BMP_pressure;BME280_temperature;BME280_humidity;BME280_pressure;Samples;Min_cycle;Max_cycle;Signal;HPM_P1;HPM_P2
2022/09/28 00:01:19;;;;;;;6.50;2.80;;;;;14.60;96012.40;;;;111161;1247;41420;-61
2022/09/28 00:03:49;;;;;;;6.60;2.60;;;;;14.60;96006.20;;;;111117;1247;41148;-61
2022/09/28 00:06:20;;;;;;;5.40;2.50;;;;;14.60;96009.80;;;;111112;1248;41866;-61
2022/09/28 00:08:49;;;;;;;5.50;2.40;;;;;14.66;96009.40;;;;111112;1247;41613;-61
2022/09/28 00:11:19;;;;;;;6.80;2.80;;;;;14.70;96017.80;;;;110863;1249;42314;-61
2022/09/28 00:13:50;;;;;;;6.50;2.50;;;;;14.70;96009.80;;;;111172;1247;41261;-61
2022/09/28 00:16:22;;;;;;;6.60;2.40;;;;;14.70;96009.60;;;;111044;1247;41351;-60
2022/09/28 00:18:51;;;;;;;7.80;2.70;;;;;14.70;96016.40;;;;111228;1247;41150;-60
2022/09/28 00:21:21;;;;;;;;;;;;;14.70;96029.60;;;;111408;1247;41250;-60
2022/09/28 00:24:16;;;;;;;5.80;2.60;;;;;14.70;96028.60;;;;111477;1245;41148;-60
2022/09/28 00:26:55;;;;;;;7.30;2.70;;;;;14.70;96030.80;;;;111333;1246;41146;-60
2022/09/28 00:29:25;;;;;;;7.90;2.60;;;;;14.70;96031.80;;;;111244;1245;41701;-60
2022/09/28 00:32:01;;;;;;;6.60;2.50;;;;;14.64;96030.00;;;;111448;1245;41512;-59
2022/09/28 00:34:36;;;;;;;6.20;2.70;;;;;14.60;96026.60;;;;111480;1245;41120;-60
2022/09/28 00:37:09;;;;;;;7.40;3.00;;;;;14.60;96029.00;;;;111174;1247;41613;-60
2022/09/28 00:39:40;;;;;;;7.70;3.20;;;;;14.60;96030.20;;;;111503;1246;41108;-60
2022/09/28 00:42:11;;;;;;;7.90;3.30;;;;;14.54;96035.00;;;;111038;1247;41613;-61
2022/09/28 00:44:54;;;;;;;6.90;2.90;;;;;14.50;96035.80;;;;111327;1245;41146;-60
2022/09/28 00:47:40;;;;;;;5.30;2.20;;;;;14.50;96035.20;;;;111347;1245;41341;-60
2022/09/28 00:50:22;;;;;;;8.10;2.90;;;;;14.50;96041.40;;;;111125;1245;41140;-60
2022/09/28 00:52:56;;;;;;;6.40;2.60;;;;;14.50;96035.20;;;;111159;1247;41206;-61
2022/09/28 00:55:39;;;;;;;9.20;3.80;;;;;14.50;96030.80;;;;111094;1247;41169;-61
2022/09/28 00:58:12;;;;;;;11.70;4.00;;;;;14.38;96032.00;;;;110834;1249;41254;-59
2022/09/28 01:00:41;;;;;;;8.10;3.50;;;;;14.30;96023.80;;;;110688;1249;41896;-60
2022/09/28 01:03:13;;;;;;;8.10;3.60;;;;;14.20;96017.20;;;;111056;1249;42037;-61
2022/09/28 01:05:42;;;;;;;9.50;4.00;;;;;14.10;96017.80;;;;111108;1249;42379;-61
2022/09/28 01:08:11;;;;;;;9.90;4.10;;;;;14.00;96019.20;;;;111107;1248;41590;-62
2022/09/28 01:10:40;;;;;;;9.50;4.30;;;;;13.90;96019.40;;;;111077;1248;41235;-61
2022/09/28 01:13:11;;;;;;;9.10;4.00;;;;;13.90;96022.80;;;;111107;1247;41161;-60
2022/09/28 01:15:58;;;;;;;8.40;3.70;;;;;13.90;96024.40;;;;110870;1248;42179;-60
2022/09/28 01:18:38;;;;;;;7.80;3.10;;;;;13.80;96024.20;;;;110873;1249;41275;-60
2022/09/28 01:21:24;;;;;;;8.40;3.50;;;;;13.78;96022.00;;;;111139;1247;41149;-60
2022/09/28 01:24:14;;;;;;;5.00;2.30;;;;;13.70;96019.40;;;;111082;1249;41140;-60
2022/09/28 01:26:58;;;;;;;7.00;2.70;;;;;13.68;96020.40;;;;111108;1247;41181;-61
2022/09/28 01:29:28;;;;;;;8.70;3.40;;;;;13.60;96014.80;;;;110676;1249;41260;-60
2022/09/28 01:32:13;;;;;;;7.20;3.00;;;;;13.60;96015.00;;;;110681;1249;41301;-60
2022/09/28 01:35:05;;;;;;;8.10;3.20;;;;;13.52;96021.40;;;;110724;1249;41251;-60
2022/09/28 01:38:05;;;;;;;6.20;2.50;;;;;13.50;96022.00;;;;111116;1248;41194;-61
2022/09/28 01:40:34;;;;;;;;;;;;;13.42;96026.00;;;;111079;1248;41175;-60
2022/09/28 01:43:23;;;;;;;8.80;3.10;;;;;13.40;96025.60;;;;110666;1248;41901;-60
2022/09/28 01:46:10;;;;;;;9.80;3.20;;;;;13.40;96029.20;;;;111050;1249;41726;-60
2022/09/28 01:48:56;;;;;;;6.90;3.00;;;;;13.30;96020.00;;;;111044;1248;41143;-60
2022/09/28 01:51:46;;;;;;;7.00;2.60;;;;;13.20;96010.60;;;;111045;1249;41537;-61
2022/09/28 01:54:25;;;;;;;5.50;2.30;;;;;13.20;96017.00;;;;111136;1247;41133;-60
2022/09/28 01:57:05;;;;;;;5.90;2.30;;;;;13.10;96020.60;;;;111002;1249;41654;-61
2022/09/28 01:59:36;;;;;;;5.00;2.00;;;;;13.10;96018.20;;;;111018;1248;41148;-61
2022/09/28 02:02:10;;;;;;;5.10;2.00;;;;;13.00;96019.60;;;;111045;1247;41378;-61
2022/09/28 02:04:44;;;;;;;7.70;2.20;;;;;12.96;96025.60;;;;111037;1248;41158;-61
2022/09/28 02:07:26;;;;;;;8.60;2.20;;;;;12.90;96026.40;;;;111018;1248;41467;-61
2022/09/28 02:10:03;;;;;;;16.40;2.60;;;;;12.86;96034.20;;;;111021;1249;41716;-62
2022/09/28 02:12:46;;;;;;;9.40;1.90;;;;;12.86;96045.20;;;;111029;1248;41248;-59
2022/09/28 02:15:41;;;;;;;4.30;1.90;;;;;12.86;96050.80;;;;110662;1250;42049;-60
2022/09/28 02:18:10;;;;;;;4.70;2.00;;;;;12.88;96062.60;;;;110643;1249;41157;-60
2022/09/28 02:20:43;;;;;;;5.00;2.20;;;;;12.90;96060.40;;;;110830;1249;41161;-60
2022/09/28 02:23:12;;;;;;;7.10;2.40;;;;;12.90;96060.60;;;;110862;1249;42413;-60
2022/09/28 02:25:48;;;;;;;5.50;2.30;;;;;12.90;96060.20;;;;111036;1249;42057;-61
2022/09/28 02:28:17;;;;;;;5.20;2.10;;;;;13.00;96056.40;;;;111131;1248;41412;-60
2022/09/28 02:30:47;;;;;;;5.90;2.20;;;;;13.00;96067.20;;;;111043;1249;41148;-61
2022/09/28 02:33:21;;;;;;;8.90;2.20;;;;;13.00;96073.00;;;;110980;1247;41200;-61
2022/09/28 02:35:50;;;;;;;5.90;2.30;;;;;13.04;96073.00;;;;110999;1248;42002;-61
2022/09/28 02:38:18;;;;;;;6.40;2.40;;;;;13.10;96077.00;;;;111082;1247;41196;-60
2022/09/28 02:41:18;;;;;;;6.10;2.30;;;;;13.00;96076.00;;;;110808;1249;42484;-61
2022/09/28 02:44:31;;;;;;;6.10;1.80;;;;;13.00;96075.20;;;;110895;1248;41261;-61
2022/09/28 02:47:05;;;;;;;4.00;1.90;;;;;12.94;96079.80;;;;111058;1249;41389;-60
2022/09/28 02:49:42;;;;;;;4.40;1.80;;;;;12.90;96083.20;;;;110992;1247;41263;-60
2022/09/28 02:52:31;;;;;;;5.30;2.10;;;;;12.90;96091.40;;;;110874;1250;41336;-61
2022/09/28 02:55:12;;;;;;;4.70;1.70;;;;;12.88;96094.60;;;;111041;1249;41176;-61
2022/09/28 02:58:02;;;;;;;3.50;1.70;;;;;12.80;96090.60;;;;111081;1249;41144;-60
2022/09/28 03:00:40;;;;;;;4.80;1.90;;;;;12.80;96089.20;;;;111013;1248;41157;-61
2022/09/28 03:03:17;;;;;;;5.80;1.90;;;;;12.80;96089.00;;;;111040;1249;41725;-60
2022/09/28 03:05:51;;;;;;;4.30;1.80;;;;;12.78;96095.20;;;;111004;1250;41257;-60
2022/09/28 03:08:21;;;;;;;5.30;2.00;;;;;12.70;96089.80;;;;111137;1248;41302;-60
2022/09/28 03:10:55;;;;;;;7.50;2.20;;;;;12.60;96085.00;;;;111162;1248;41155;-61
2022/09/28 03:13:25;;;;;;;4.10;2.00;;;;;12.58;96088.00;;;;111103;1249;41641;-61
2022/09/28 03:16:08;;;;;;;4.20;2.00;;;;;12.50;96087.00;;;;111147;1247;41257;-61
2022/09/28 03:18:38;;;;;;;4.30;1.90;;;;;12.50;96090.80;;;;111203;1247;41512;-61
2022/09/28 03:21:10;;;;;;;5.20;2.20;;;;;12.50;96085.60;;;;110918;1249;41359;-61
2022/09/28 03:23:39;;;;;;;3.70;1.80;;;;;12.42;96084.20;;;;110912;1250;41219;-61
2022/09/28 03:26:08;;;;;;;4.70;2.20;;;;;12.40;96084.20;;;;110889;1249;41161;-61
2022/09/28 03:28:38;;;;;;;3.80;2.00;;;;;12.40;96083.40;;;;111130;1250;42700;-60
2022/09/28 03:31:06;;;;;;;3.30;1.70;;;;;12.40;96089.00;;;;110709;1250;41860;-61
2022/09/28 03:33:35;;;;;;;4.30;1.80;;;;;12.40;96091.00;;;;111065;1248;41149;-61
2022/09/28 03:36:04;;;;;;;5.80;2.40;;;;;12.40;96080.40;;;;111162;1247;41140;-59
2022/09/28 03:38:32;;;;;;;4.70;2.00;;;;;12.32;96073.40;;;;111205;1247;41907;-61
2022/09/28 03:41:01;;;;;;;5.80;2.30;;;;;12.30;96064.60;;;;111051;1249;41153;-61
2022/09/28 03:43:34;;;;;;;4.60;2.10;;;;;12.30;96059.20;;;;111326;1247;43033;-61
2022/09/28 03:46:05;;;;;;;7.10;2.20;;;;;12.30;96059.40;;;;111270;1249;41197;-61
2022/09/28 03:48:39;;;;;;;4.30;1.80;;;;;12.24;96058.60;;;;111099;1249;41878;-62
2022/09/28 03:51:12;;;;;;;2.70;1.60;;;;;12.20;96071.20;;;;111223;1247;41112;-62
2022/09/28 03:53:40;;;;;;;3.50;1.70;;;;;12.20;96075.20;;;;110846;1251;40929;-60
2022/09/28 03:56:13;;;;;;;5.90;1.80;;;;;12.20;96081.20;;;;111212;1249;41269;-61
2022/09/28 03:58:42;;;;;;;2.60;1.60;;;;;12.18;96081.60;;;;111218;1247;41767;-61
2022/09/28 04:01:12;;;;;;;4.00;1.70;;;;;12.10;96082.60;;;;111161;1250;41350;-61
2022/09/28 04:03:45;;;;;;;3.10;1.60;;;;;12.18;96079.60;;;;111108;1249;41169;-61
2022/09/28 04:06:14;;;;;;;3.70;1.80;;;;;12.20;96084.40;;;;111055;1250;41159;-61
2022/09/28 04:08:43;;;;;;;2.80;1.60;;;;;12.20;96089.00;;;;110748;1249;41218;-62
2022/09/28 04:11:11;;;;;;;5.40;1.80;;;;;12.20;96094.00;;;;110918;1250;41188;-62
2022/09/28 04:13:40;;;;;;;4.20;1.80;;;;;12.20;96099.40;;;;111068;1249;41165;-61
2022/09/28 04:16:10;;;;;;;2.70;1.50;;;;;12.26;96104.40;;;;111163;1249;41154;-61
2022/09/28 04:18:41;;;;;;;3.80;1.70;;;;;12.30;96108.00;;;;111001;1250;41271;-62
2022/09/28 04:21:27;;;;;;;3.80;1.80;;;;;12.30;96110.00;;;;111050;1249;41254;-61
2022/09/28 04:24:01;;;;;;;6.50;2.10;;;;;12.30;96117.00;;;;110838;1251;42071;-60
2022/09/28 04:26:28;;;;;;;5.40;2.30;;;;;12.40;96118.60;;;;110936;1249;41619;-60
2022/09/28 04:29:15;;;;;;;5.40;1.90;;;;;12.40;96115.00;;;;110840;1251;41182;-60
2022/09/28 04:31:54;;;;;;;4.50;2.00;;;;;12.40;96111.00;;;;111046;1249;41154;-61
2022/09/28 04:34:33;;;;;;;3.00;1.60;;;;;12.40;96113.20;;;;111136;1250;41949;-61
2022/09/28 04:37:04;;;;;;;2.90;1.70;;;;;12.40;96114.20;;;;111083;1247;42548;-61
2022/09/28 04:39:31;;;;;;;3.30;1.70;;;;;12.50;96112.80;;;;111119;1249;42629;-61
2022/09/28 04:42:00;;;;;;;3.80;1.80;;;;;12.50;96108.00;;;;111162;1247;41602;-61
2022/09/28 04:44:28;;;;;;;4.40;1.90;;;;;12.50;96110.60;;;;111190;1248;41144;-60
2022/09/28 04:47:02;;;;;;;5.90;2.30;;;;;12.50;96110.60;;;;111109;1248;42007;-60
2022/09/28 04:49:34;;;;;;;5.50;2.20;;;;;12.50;96108.20;;;;111123;1247;41157;-60
2022/09/28 04:52:08;;;;;;;4.60;2.00;;;;;12.50;96104.40;;;;111099;1248;41257;-61
2022/09/28 04:54:36;;;;;;;7.10;2.20;;;;;12.60;96117.80;;;;110951;1248;41139;-61
2022/09/28 04:57:04;;;;;;;4.70;2.10;;;;;12.70;96128.20;;;;111017;1250;41156;-61
2022/09/28 04:59:33;;;;;;;3.70;1.80;;;;;12.72;96131.80;;;;111143;1248;42068;-60
2022/09/28 05:02:01;;;;;;;3.50;1.80;;;;;12.92;96129.80;;;;110972;1248;41173;-61
2022/09/28 05:04:30;;;;;;;2.90;1.50;;;;;13.10;96124.40;;;;111168;1248;41264;-61
2022/09/28 05:07:17;;;;;;;3.70;1.70;;;;;13.20;96131.20;;;;110973;1250;40759;-60
2022/09/28 05:09:46;;;;;;;3.80;1.90;;;;;13.40;96128.20;;;;111134;1249;41175;-61
2022/09/28 05:12:14;;;;;;;9.50;2.50;;;;;13.60;96134.80;;;;110995;1249;41259;-61
2022/09/28 05:14:43;;;;;;;6.60;2.80;;;;;13.60;96130.00;;;;110920;1251;41241;-61
2022/09/28 05:17:10;;;;;;;6.30;2.80;;;;;13.72;96107.80;;;;110939;1251;42651;-61
2022/09/28 05:19:54;;;;;;;5.70;2.40;;;;;14.54;96117.20;;;;111189;1249;41596;-61
2022/09/28 05:22:22;;;;;;;6.80;3.00;;;;;14.84;96127.00;;;;111104;1249;41556;-61
2022/09/28 05:24:50;;;;;;;7.00;2.50;;;;;14.90;96129.00;;;;110953;1250;41260;-61
2022/09/28 05:27:18;;;;;;;16.20;3.70;;;;;14.80;96133.00;;;;111105;1248;42345;-61
2022/09/28 05:29:54;;;;;;;7.90;2.30;;;;;14.60;96134.80;;;;111179;1248;41261;-61
2022/09/28 05:32:41;;;;;;;4.30;2.00;;;;;14.48;96136.00;;;;111205;1247;41136;-60
2022/09/28 05:35:33;;;;;;;6.40;2.10;;;;;14.34;96131.60;;;;111125;1249;42043;-61
2022/09/28 05:38:04;;;;;;;3.60;1.70;;;;;14.30;96134.80;;;;110999;1248;333831;-60
2022/09/28 05:40:33;;;;;;;11.00;2.00;;;;;14.38;96140.40;;;;110950;1249;41200;-61
2022/09/28 05:43:01;;;;;;;6.30;2.50;;;;;14.40;96139.40;;;;110854;1250;41117;-60
2022/09/28 05:45:29;;;;;;;6.20;2.50;;;;;14.40;96144.80;;;;111145;1248;41137;-60
2022/09/28 05:47:57;;;;;;;8.10;3.00;;;;;14.30;96143.20;;;;111117;1248;42096;-61
2022/09/28 05:50:25;;;;;;;6.80;2.60;;;;;14.30;96146.80;;;;111178;1247;41714;-61
2022/09/28 05:53:19;;;;;;;8.10;3.20;;;;;14.20;96151.00;;;;110801;1248;41720;-61
2022/09/28 05:55:47;;;;;;;6.80;2.90;;;;;14.20;96163.60;;;;110918;1250;42559;-60
2022/09/28 05:58:15;;;;;;;7.30;3.00;;;;;14.06;96165.40;;;;110993;1249;41551;-60
2022/09/28 06:00:42;;;;;;;5.80;2.60;;;;;14.00;96166.80;;;;110830;1249;41262;-61
2022/09/28 06:03:11;;;;;;;8.00;2.90;;;;;14.00;96169.80;;;;111031;1250;41719;-60
2022/09/28 06:05:39;;;;;;;6.70;2.80;;;;;14.00;96173.40;;;;111146;1249;41136;-60
2022/09/28 06:08:09;;;;;;;7.20;2.90;;;;;14.00;96175.40;;;;111103;1248;41463;-60
2022/09/28 06:10:37;;;;;;;8.90;3.00;;;;;14.00;96173.80;;;;110825;1249;42243;-60
2022/09/28 06:13:05;;;;;;;7.00;2.90;;;;;14.10;96174.00;;;;110975;1248;41335;-61
2022/09/28 06:15:35;;;;;;;8.40;2.80;;;;;14.18;96170.20;;;;110936;1250;42394;-61
2022/09/28 06:18:10;;;;;;;7.80;3.30;;;;;14.20;96170.60;;;;110762;1248;41160;-62
2022/09/28 06:21:05;;;;;;;6.60;2.50;;;;;14.58;96159.40;;;;111103;1249;41179;-62
2022/09/28 06:23:40;;;;;;;7.20;2.90;;;;;15.16;96167.60;;;;111068;1247;41197;-62
2022/09/28 06:26:10;;;;;;;;;;;;;15.50;96161.20;;;;110992;1250;42411;-62
2022/09/28 06:28:38;;;;;;;7.50;3.10;;;;;15.70;96164.40;;;;111133;1248;41385;-62
2022/09/28 06:31:06;;;;;;;5.20;2.20;;;;;15.70;96161.00;;;;110933;1250;41251;-62
2022/09/28 06:33:41;;;;;;;7.80;2.70;;;;;16.24;96166.00;;;;110993;1251;41252;-60
2022/09/28 06:36:09;;;;;;;6.30;2.30;;;;;16.50;96172.40;;;;110839;1250;41916;-61
2022/09/28 06:38:37;;;;;;;4.70;2.10;;;;;16.52;96168.40;;;;111211;1247;41149;-60
2022/09/28 06:41:07;;;;;;;6.80;2.50;;;;;16.70;96166.60;;;;111058;1248;41598;-63
2022/09/28 06:43:38;;;;;;;6.10;2.60;;;;;17.16;96147.20;;;;111031;1249;41173;-62
2022/09/28 06:46:24;;;;;;;5.90;2.40;;;;;17.86;96135.60;;;;111146;1248;41352;-64
2022/09/28 06:49:10;;;;;;;3.80;2.00;;;;;18.70;96140.00;;;;111157;1248;42780;-63
2022/09/28 06:51:56;;;;;;;6.50;2.60;;;;;19.46;96143.40;;;;111051;1247;41782;-62
2022/09/28 06:54:41;;;;;;;7.10;2.30;;;;;20.00;96155.40;;;;111148;1250;41158;-62
2022/09/28 06:57:27;;;;;;;6.70;2.50;;;;;20.50;96146.80;;;;111153;1249;42554;-60
2022/09/28 06:59:55;;;;;;;6.70;2.20;;;;;20.60;96158.60;;;;111130;1248;41144;-62
2022/09/28 07:02:22;;;;;;;4.90;2.20;;;;;19.86;96170.40;;;;111152;1248;41162;-62
2022/09/28 07:05:26;;;;;;;5.30;2.20;;;;;19.44;96166.60;;;;110819;1247;41518;-62
2022/09/28 07:08:28;;;;;;;4.60;2.10;;;;;19.22;96169.80;;;;110591;1253;41259;-61
2022/09/28 07:11:19;;;;;;;6.60;2.50;;;;;18.90;96160.40;;;;110997;1248;41356;-62
2022/09/28 07:14:02;;;;;;;5.30;2.20;;;;;19.48;96168.40;;;;111037;1248;41627;-61
2022/09/28 07:16:30;;;;;;;4.50;2.10;;;;;20.22;96170.00;;;;110976;1248;41518;-62
2022/09/28 07:19:18;;;;;;;5.20;2.20;;;;;20.70;96176.20;;;;111088;1248;41486;-61
2022/09/28 07:21:45;;;;;;;4.50;2.10;;;;;20.46;96189.60;;;;110833;1250;41176;-61
2022/09/28 07:24:20;;;;;;;5.00;2.30;;;;;19.90;96195.80;;;;111132;1247;40750;-61
2022/09/28 07:27:11;;;;;;;6.60;2.70;;;;;19.20;96206.60;;;;110943;1249;41138;-62
2022/09/28 07:29:59;;;;;;;5.70;2.30;;;;;18.78;96215.60;;;;110698;1249;41960;-61
2022/09/28 07:33:06;;;;;;;5.40;2.30;;;;;18.28;96215.40;;;;110664;1251;41160;-61
2022/09/28 07:35:54;;;;;;;8.50;2.70;;;;;17.72;96226.20;;;;110567;1254;41181;-61
2022/09/28 07:38:25;;;;;;;6.90;2.90;;;;;17.32;96225.20;;;;110640;1249;42137;-61
2022/09/28 07:41:10;;;;;;;8.10;2.90;;;;;17.10;96222.60;;;;110907;1250;41158;-62
2022/09/28 07:43:42;;;;;;;6.80;3.00;;;;;16.90;96221.80;;;;111210;1248;41789;-62
2022/09/28 07:46:11;;;;;;;5.80;2.50;;;;;17.18;96211.00;;;;111226;1247;41166;-62
2022/09/28 07:48:44;;;;;;;6.90;2.50;;;;;18.36;96214.80;;;;111123;1248;41141;-62
2022/09/28 07:51:20;;;;;;;6.90;2.80;;;;;19.10;96212.80;;;;111001;1249;41618;-62
2022/09/28 07:54:07;;;;;;;13.80;3.10;;;;;19.00;96205.00;;;;111076;1248;42641;-62
2022/09/28 07:56:52;;;;;;;12.60;3.50;;;;;18.70;96218.00;;;;111086;1248;41726;-62
2022/09/28 07:59:37;;;;;;;6.50;2.80;;;;;18.82;96220.60;;;;111157;1247;41241;-60
2022/09/28 08:02:36;;;;;;;7.30;3.30;;;;;18.90;96221.40;;;;110978;1248;41688;-60
2022/09/28 08:05:04;;;;;;;7.90;3.20;;;;;19.10;96224.60;;;;111110;1247;41160;-60
2022/09/28 08:07:33;;;;;;;6.50;2.90;;;;;19.20;96233.00;;;;111081;1246;41621;-60
2022/09/28 08:10:06;;;;;;;6.30;2.50;;;;;19.36;96237.00;;;;110999;1248;41136;-59
2022/09/28 08:13:03;;;;;;;5.70;2.30;;;;;19.60;96240.40;;;;110944;1247;41268;-60
2022/09/28 08:15:53;;;;;;;5.90;2.20;;;;;19.90;96238.60;;;;110865;1248;41216;-60
2022/09/28 08:18:48;;;;;;;8.20;2.60;;;;;19.94;96243.60;;;;110775;1250;41249;-60
2022/09/28 08:24:03;;;;;;;5.90;2.50;;;;;19.80;96238.60;;;;110744;1250;41284;-60
2022/09/28 08:26:30;;;;;;;5.10;2.10;;;;;20.04;96241.20;;;;110649;1250;42008;-61
2022/09/28 08:28:58;;;;;;;5.50;2.20;;;;;20.20;96242.40;;;;111307;1249;41353;-59
2022/09/28 08:31:47;;;;;;;8.20;2.50;;;;;20.34;96242.20;;;;110665;1250;41929;-59
2022/09/28 08:34:40;;;;;;;7.60;2.50;;;;;20.30;96249.40;;;;110760;1250;41148;-59
2022/09/28 08:37:34;;;;;;;6.10;2.20;;;;;20.04;96247.80;;;;111111;1249;41237;-60
2022/09/28 08:40:02;;;;;;;4.70;2.20;;;;;20.30;96243.00;;;;110758;1250;41938;-60
2022/09/28 08:42:57;;;;;;;4.60;2.00;;;;;20.50;96238.20;;;;110767;1250;41777;-61
2022/09/28 08:45:43;;;;;;;4.20;2.00;;;;;20.28;96243.40;;;;110904;1248;41176;-61
2022/09/28 08:48:46;;;;;;;6.80;2.30;;;;;20.30;96243.00;;;;111049;1248;41261;-60
2022/09/28 08:51:48;;;;;;;5.40;2.20;;;;;21.48;96232.80;;;;111100;1248;41506;-60
2022/09/28 08:54:40;;;;;;;5.80;2.10;;;;;22.10;96231.60;;;;110966;1247;41233;-60
2022/09/28 08:57:23;;;;;;;2.60;1.40;;;;;22.76;96234.00;;;;110774;1248;41141;-60
2022/09/28 08:59:53;;;;;;;2.70;1.40;;;;;22.80;96235.20;;;;110793;1248;41622;-60
2022/09/28 09:02:35;;;;;;;2.30;1.50;;;;;22.40;96231.20;;;;111040;1248;42540;-60
2022/09/28 09:05:15;;;;;;;2.60;1.60;;;;;21.86;96242.60;;;;111146;1248;41356;-60
2022/09/28 09:08:08;;;;;;;3.00;1.60;;;;;21.40;96243.80;;;;110852;1250;41161;-60
2022/09/28 09:11:16;;;;;;;2.40;1.40;;;;;21.06;96243.80;;;;111187;1249;41488;-60
2022/09/28 09:14:05;;;;;;;2.60;1.50;;;;;20.66;96235.00;;;;110641;1254;42084;-61
2022/09/28 09:16:48;;;;;;;4.50;1.80;;;;;20.40;96235.60;;;;110523;1254;41654;-60
2022/09/28 09:19:41;;;;;;;4.10;1.80;;;;;20.50;96223.00;;;;111016;1248;41470;-60
2022/09/28 09:22:40;;;;;;;3.80;1.60;;;;;21.20;96211.80;;;;111128;1247;41121;-60
2022/09/28 09:25:09;;;;;;;3.80;1.70;;;;;21.84;96216.60;;;;111116;1247;41372;-60
2022/09/28 09:28:07;;;;;;;3.50;1.80;;;;;22.20;96226.80;;;;111080;1248;41147;-60
2022/09/28 09:31:04;;;;;;;3.30;1.60;;;;;22.60;96239.80;;;;111108;1247;41152;-60
2022/09/28 09:33:57;;;;;;;3.40;1.70;;;;;22.70;96247.60;;;;111047;1248;41255;-61
2022/09/28 09:37:15;;;;;;;4.20;2.00;;;;;22.70;96251.00;;;;111054;1248;41716;-60
2022/09/28 09:40:33;;;;;;;4.60;1.90;;;;;22.60;96242.20;;;;110902;1248;41790;-60
2022/09/28 09:43:27;;;;;;;3.40;1.70;;;;;22.60;96245.00;;;;111149;1247;41165;-60
2022/09/28 09:46:29;;;;;;;2.90;1.50;;;;;22.80;96245.00;;;;111125;1249;41155;-60
2022/09/28 09:49:39;;;;;;;3.00;1.60;;;;;22.90;96252.40;;;;111229;1247;41157;-61
2022/09/28 09:52:32;;;;;;;3.80;1.60;;;;;22.90;96263.80;;;;110979;1250;42053;-62
2022/09/28 09:55:31;;;;;;;3.80;1.60;;;;;22.80;96266.20;;;;111176;1247;41556;-60
2022/09/28 09:58:23;;;;;;;4.00;1.70;;;;;22.60;96267.80;;;;111078;1247;41124;-60
2022/09/28 10:01:10;;;;;;;3.00;1.70;;;;;22.32;96259.60;;;;111144;1248;41602;-61
2022/09/28 10:04:23;;;;;;;3.40;1.50;;;;;22.10;96266.60;;;;110316;1250;41164;-60
2022/09/28 10:06:58;;;;;;;3.10;1.50;;;;;21.90;96268.00;;;;111117;1248;41734;-60
2022/09/28 10:09:38;;;;;;;2.90;1.40;;;;;21.90;96264.00;;;;111146;1247;41197;-59
2022/09/28 10:12:25;;;;;;;3.00;1.50;;;;;21.80;96269.40;;;;111024;1247;41425;-59
2022/09/28 10:14:54;;;;;;;3.00;1.40;;;;;21.80;96267.20;;;;110980;1250;41267;-59
2022/09/28 10:17:26;;;;;;;1.30;1.10;;;;;21.70;96266.80;;;;110800;1248;41158;-59
2022/09/28 10:20:13;;;;;;;3.80;1.30;;;;;21.32;96275.20;;;;110812;1249;41784;-59
2022/09/28 10:23:03;;;;;;;2.40;1.30;;;;;21.12;96280.60;;;;111074;1249;41995;-59
2022/09/28 10:25:33;;;;;;;1.30;1.20;;;;;20.80;96282.80;;;;111060;1250;41963;-59
2022/09/28 10:28:02;;;;;;;2.40;1.50;;;;;20.60;96285.80;;;;110691;1250;41144;-59
2022/09/28 10:30:34;;;;;;;1.50;1.20;;;;;20.40;96291.20;;;;110876;1251;41142;-59
2022/09/28 10:33:02;;;;;;;1.90;1.30;;;;;20.20;96292.80;;;;110852;1248;41955;-60
2022/09/28 10:35:50;;;;;;;1.70;1.30;;;;;20.10;96294.60;;;;110784;1247;41716;-60
2022/09/28 10:38:18;;;;;;;1.70;1.30;;;;;20.00;96290.60;;;;110780;1250;41169;-60
2022/09/28 10:41:00;;;;;;;1.30;1.20;;;;;19.80;96288.60;;;;111141;1248;41613;-60
2022/09/28 10:43:40;;;;;;;1.80;1.30;;;;;19.74;96292.80;;;;110838;1250;41139;-60
2022/09/28 10:46:12;;;;;;;1.90;1.20;;;;;19.80;96285.60;;;;110999;1250;41263;-60
2022/09/28 10:49:03;;;;;;;1.90;1.30;;;;;19.98;96285.20;;;;111141;1248;41155;-59
2022/09/28 10:51:57;;;;;;;2.00;1.30;;;;;20.26;96286.40;;;;110789;1250;41010;-59
2022/09/28 10:54:33;;;;;;;2.00;1.30;;;;;20.72;96284.00;;;;110725;1251;41155;-60
2022/09/28 10:57:00;;;;;;;3.10;1.50;;;;;21.10;96284.40;;;;111027;1250;41357;-60
2022/09/28 10:59:40;;;;;;;4.70;1.50;;;;;21.20;96277.00;;;;111152;1247;41612;-61
2022/09/28 11:02:39;;;;;;;1.90;1.30;;;;;21.56;96269.20;;;;110981;1247;41260;-60
2022/09/28 11:05:23;;;;;;;2.80;1.50;;;;;21.96;96266.60;;;;111170;1248;41283;-60
2022/09/28 11:07:54;;;;;;;2.60;1.40;;;;;22.68;96259.00;;;;111121;1248;42181;-60
2022/09/28 11:10:29;;;;;;;2.60;1.30;;;;;23.32;96248.60;;;;110822;1248;41912;-60
2022/09/28 11:13:09;;;;;;;1.70;1.20;;;;;24.36;96245.40;;;;111183;1248;41160;-60
2022/09/28 11:15:41;;;;;;;2.70;1.40;;;;;25.18;96240.80;;;;111148;1247;41264;-60
2022/09/28 11:18:18;;;;;;;3.00;1.20;;;;;25.68;96240.40;;;;111200;1247;42219;-59
2022/09/28 11:20:45;;;;;;;2.80;1.30;;;;;26.10;96237.00;;;;110891;1250;41252;-60
2022/09/28 11:23:34;;;;;;;2.30;1.30;;;;;25.90;96234.40;;;;111367;1247;41815;-61
2022/09/28 11:26:13;;;;;;;1.20;1.10;;;;;26.60;96234.00;;;;110844;1247;41926;-61
2022/09/28 11:28:50;;;;;;;1.70;1.20;;;;;27.02;96231.20;;;;111109;1247;41141;-60
2022/09/28 11:31:26;;;;;;;2.40;1.20;;;;;27.70;96233.20;;;;111090;1248;42886;-61
2022/09/28 11:34:23;;;;;;;1.30;1.20;;;;;28.50;96239.60;;;;111079;1250;41262;-59
2022/09/28 11:37:26;;;;;;;1.50;1.00;;;;;28.20;96242.80;;;;111078;1247;41351;-59
2022/09/28 11:40:07;;;;;;;;;;;;;28.10;96237.80;;;;110966;1248;41169;-59
2022/09/28 11:42:58;;;;;;;1.80;1.00;;;;;27.82;96237.60;;;;111187;1248;41144;-60
2022/09/28 11:45:37;;;;;;;1.80;1.00;;;;;27.52;96244.00;;;;111068;1248;41632;-61
2022/09/28 11:48:14;;;;;;;2.00;1.10;;;;;27.20;96246.40;;;;111158;1248;41840;-61
2022/09/28 11:50:45;;;;;;;2.80;1.20;;;;;27.10;96234.00;;;;110865;1250;41195;-61
2022/09/28 11:53:36;;;;;;;2.50;1.10;;;;;27.16;96227.80;;;;111087;1247;41143;-61
2022/09/28 11:56:37;;;;;;;3.40;1.20;;;;;28.12;96225.60;;;;111174;1247;41152;-61
2022/09/28 11:59:11;;;;;;;2.50;1.00;;;;;29.02;96222.40;;;;111144;1248;41911;-60
2022/09/28 12:01:45;;;;;;;1.80;1.20;;;;;29.78;96231.60;;;;111077;1248;41616;-61
2022/09/28 12:04:39;;;;;;;2.50;1.20;;;;;30.70;96225.80;;;;111084;1247;41395;-62
2022/09/28 12:07:24;;;;;;;1.10;1.00;;;;;31.34;96223.80;;;;110671;1247;42293;-61
2022/09/28 12:09:55;;;;;;;1.00;0.90;;;;;31.82;96232.00;;;;111054;1248;41158;-62
2022/09/28 12:12:31;;;;;;;1.10;0.90;;;;;31.44;96236.80;;;;110969;1248;41273;-61
2022/09/28 12:15:04;;;;;;;1.10;1.00;;;;;30.60;96237.40;;;;110703;1249;41347;-60
2022/09/28 12:17:39;;;;;;;3.80;1.30;;;;;30.30;96235.80;;;;111087;1246;41144;-59
2022/09/28 12:20:21;;;;;;;1.40;1.00;;;;;28.62;96240.40;;;;111014;1248;41143;-61
2022/09/28 12:22:54;;;;;;;1.30;1.00;;;;;28.00;96241.40;;;;111047;1248;41632;-60
2022/09/28 12:25:22;;;;;;;1.60;1.10;;;;;27.90;96242.80;;;;111013;1247;41243;-60
2022/09/28 12:28:00;;;;;;;1.90;1.00;;;;;27.60;96243.20;;;;111089;1248;41754;-60
2022/09/28 12:30:33;;;;;;;1.10;0.90;;;;;27.74;96244.20;;;;111094;1248;41768;-60
2022/09/28 12:33:05;;;;;;;1.90;0.90;;;;;27.64;96248.80;;;;111056;1248;41137;-60
2022/09/28 12:36:10;;;;;;;2.00;1.10;;;;;28.04;96249.20;;;;111115;1247;41585;-60
2022/09/28 12:38:55;;;;;;;1.40;1.10;;;;;28.48;96251.80;;;;111043;1247;41157;-60
2022/09/28 12:42:01;;;;;;;1.10;1.00;;;;;28.42;96257.00;;;;111056;1248;41740;-61
2022/09/28 12:44:44;;;;;;;2.00;0.90;;;;;28.06;96257.40;;;;111053;1247;41625;-61
2022/09/28 12:47:15;;;;;;;2.30;0.90;;;;;27.44;96260.60;;;;111053;1247;42084;-61
2022/09/28 12:50:17;;;;;;;1.80;0.90;;;;;27.00;96263.80;;;;111083;1248;41830;-63
2022/09/28 12:53:22;;;;;;;2.00;0.90;;;;;26.80;96265.40;;;;110595;1249;41161;-62
2022/09/28 12:55:59;;;;;;;1.80;1.00;;;;;26.58;96263.80;;;;111128;1248;41481;-61
2022/09/28 12:58:37;;;;;;;1.20;1.00;;;;;26.20;96268.80;;;;111042;1248;42487;-61
2022/09/28 13:01:17;;;;;;;0.90;0.80;;;;;25.90;96265.80;;;;111054;1248;41588;-60
2022/09/28 13:04:16;;;;;;;0.80;0.80;;;;;25.62;96267.40;;;;111035;1247;41255;-61
2022/09/28 13:06:59;;;;;;;1.60;1.00;;;;;25.60;96268.40;;;;110714;1249;41625;-61
2022/09/28 13:09:27;;;;;;;1.70;1.00;;;;;25.48;96267.80;;;;110756;1250;41689;-61